sensor_id;sensor_type;location;lat;lon;timestamp;P1;durP1;ratioP1;P2;durP2;ratioP2
16073;SDS011;8141;52.664;5.074;2023-06-26T00:01:27;5.07;;;3.90;;
16073;SDS011;8141;52.664;5.074;2023-06-26T00:03:59;5.47;;;4.00;;
16073;SDS011;8141;52.664;5.074;2023-06-26T00:06:25;3.80;;;3.30;;
16073;SDS011;8141;52.664;5.074;2023-06-26T00:08:55;3.80;;;3.50;;
16073;SDS011;8141;52.664;5.074;2023-06-26T00:11:23;4.60;;;3.80;;
16073;SDS011;8141;52.664;5.074;2023-06-26T00:13:51;5.30;;;3.90;;
16073;SDS011;8141;52.664;5.074;2023-06-26T00:16:17;6.33;;;4.10;;
16073;SDS011;8141;52.664;5.074;2023-06-26T00:18:42;4.23;;;3.73;;
16073;SDS011;8141;52.664;5.074;2023-06-26T00:21:08;4.03;;;3.63;;
16073;SDS011;8141;52.664;5.074;2023-06-26T00:23:34;6.00;;;4.10;;
16073;SDS011;8141;52.664;5.074;2023-06-26T00:26:02;4.73;;;3.57;;
16073;SDS011;8141;52.664;5.074;2023-06-26T00:28:29;5.50;;;3.80;;
16073;SDS011;8141;52.664;5.074;2023-06-26T00:30:55;3.47;;;3.10;;
16073;SDS011;8141;52.664;5.074;2023-06-26T00:33:21;5.53;;;3.77;;
16073;SDS011;8141;52.664;5.074;2023-06-26T00:35:47;4.00;;;3.53;;
16073;SDS011;8141;52.664;5.074;2023-06-26T00:38:12;4.03;;;3.63;;
16073;SDS011;8141;52.664;5.074;2023-06-26T00:40:38;3.90;;;3.50;;
16073;SDS011;8141;52.664;5.074;2023-06-26T00:43:04;4.73;;;3.93;;
16073;SDS011;8141;52.664;5.074;2023-06-26T00:45:29;5.80;;;4.00;;
16073;SDS011;8141;52.664;5.074;2023-06-26T00:47:55;6.03;;;3.80;;
16073;SDS011;8141;52.664;5.074;2023-06-26T00:50:21;5.47;;;3.33;;
16073;SDS011;8141;52.664;5.074;2023-06-26T00:52:47;4.93;;;3.53;;
16073;SDS011;8141;52.664;5.074;2023-06-26T00:55:13;4.27;;;3.87;;
16073;SDS011;8141;52.664;5.074;2023-06-26T00:57:39;4.07;;;3.67;;
16073;SDS011;8141;52.664;5.074;2023-06-26T01:00:05;3.63;;;3.33;;
16073;SDS011;8141;52.664;5.074;2023-06-26T01:02:31;4.07;;;3.67;;
16073;SDS011;8141;52.664;5.074;2023-06-26T01:04:59;4.17;;;3.77;;
16073;SDS011;8141;52.664;5.074;2023-06-26T01:07:28;3.67;;;3.37;;
16073;SDS011;8141;52.664;5.074;2023-06-26T01:09:57;3.90;;;3.33;;
16073;SDS011;8141;52.664;5.074;2023-06-26T01:12:23;4.07;;;3.23;;
16073;SDS011;8141;52.664;5.074;2023-06-26T01:14:49;4.37;;;3.33;;
16073;SDS011;8141;52.664;5.074;2023-06-26T01:17:14;4.40;;;3.50;;
16073;SDS011;8141;52.664;5.074;2023-06-26T01:19:41;3.70;;;3.33;;
16073;SDS011;8141;52.664;5.074;2023-06-26T01:28:03;5.23;;;3.30;;
16073;SDS011;8141;52.664;5.074;2023-06-26T01:30:31;3.67;;;3.30;;
16073;SDS011;8141;52.664;5.074;2023-06-26T01:32:59;4.70;;;3.70;;
16073;SDS011;8141;52.664;5.074;2023-06-26T01:35:27;3.47;;;3.17;;
16073;SDS011;8141;52.664;5.074;2023-06-26T01:37:53;4.67;;;2.90;;
16073;SDS011;8141;52.664;5.074;2023-06-26T01:40:36;3.97;;;3.23;;
16073;SDS011;8141;52.664;5.074;2023-06-26T01:43:02;3.80;;;3.47;;
16073;SDS011;8141;52.664;5.074;2023-06-26T01:45:29;3.50;;;2.57;;
16073;SDS011;8141;52.664;5.074;2023-06-26T01:47:57;4.33;;;3.43;;
16073;SDS011;8141;52.664;5.074;2023-06-26T01:50:28;3.80;;;3.47;;
16073;SDS011;8141;52.664;5.074;2023-06-26T01:53:02;4.23;;;3.50;;
16073;SDS011;8141;52.664;5.074;2023-06-26T01:55:45;3.63;;;3.23;;
16073;SDS011;8141;52.664;5.074;2023-06-26T01:58:16;3.50;;;3.17;;
16073;SDS011;8141;52.664;5.074;2023-06-26T02:00:45;3.77;;;3.30;;
16073;SDS011;8141;52.664;5.074;2023-06-26T02:03:12;3.60;;;3.20;;
16073;SDS011;8141;52.664;5.074;2023-06-26T02:05:37;3.30;;;3.00;;
16073;SDS011;8141;52.664;5.074;2023-06-26T02:08:03;3.73;;;3.10;;
16073;SDS011;8141;52.664;5.074;2023-06-26T02:10:30;3.40;;;3.10;;
16073;SDS011;8141;52.664;5.074;2023-06-26T02:12:56;3.43;;;3.13;;
16073;SDS011;8141;52.664;5.074;2023-06-26T02:15:22;3.23;;;2.90;;
16073;SDS011;8141;52.664;5.074;2023-06-26T02:17:47;3.10;;;2.80;;
16073;SDS011;8141;52.664;5.074;2023-06-26T02:20:14;3.27;;;2.97;;
16073;SDS011;8141;52.664;5.074;2023-06-26T02:22:40;3.50;;;3.20;;
16073;SDS011;8141;52.664;5.074;2023-06-26T02:25:07;3.37;;;2.80;;
16073;SDS011;8141;52.664;5.074;2023-06-26T02:27:37;3.27;;;2.83;;
16073;SDS011;8141;52.664;5.074;2023-06-26T02:30:03;3.23;;;2.93;;
16073;SDS011;8141;52.664;5.074;2023-06-26T02:32:30;3.47;;;2.90;;
16073;SDS011;8141;52.664;5.074;2023-06-26T02:34:56;3.63;;;3.00;;
16073;SDS011;8141;52.664;5.074;2023-06-26T02:37:21;3.40;;;3.10;;
16073;SDS011;8141;52.664;5.074;2023-06-26T02:39:47;2.67;;;2.47;;
16073;SDS011;8141;52.664;5.074;2023-06-26T02:42:13;2.83;;;2.63;;
16073;SDS011;8141;52.664;5.074;2023-06-26T02:44:39;3.37;;;2.70;;
16073;SDS011;8141;52.664;5.074;2023-06-26T02:47:05;2.83;;;2.60;;
16073;SDS011;8141;52.664;5.074;2023-06-26T02:49:31;2.50;;;2.27;;
16073;SDS011;8141;52.664;5.074;2023-06-26T02:51:57;3.03;;;2.73;;
16073;SDS011;8141;52.664;5.074;2023-06-26T02:54:23;3.57;;;2.70;;
16073;SDS011;8141;52.664;5.074;2023-06-26T02:56:48;2.73;;;2.53;;
16073;SDS011;8141;52.664;5.074;2023-06-26T02:59:14;2.50;;;2.30;;
16073;SDS011;8141;52.664;5.074;2023-06-26T03:01:40;3.60;;;3.00;;
16073;SDS011;8141;52.664;5.074;2023-06-26T03:04:06;3.10;;;2.57;;
16073;SDS011;8141;52.664;5.074;2023-06-26T03:06:32;2.70;;;2.50;;
16073;SDS011;8141;52.664;5.074;2023-06-26T03:08:57;3.17;;;2.53;;
16073;SDS011;8141;52.664;5.074;2023-06-26T03:11:23;2.90;;;2.60;;
16073;SDS011;8141;52.664;5.074;2023-06-26T03:13:49;2.83;;;2.53;;
16073;SDS011;8141;52.664;5.074;2023-06-26T03:16:14;2.83;;;2.63;;
16073;SDS011;8141;52.664;5.074;2023-06-26T03:18:40;3.03;;;2.73;;
16073;SDS011;8141;52.664;5.074;2023-06-26T03:21:06;3.03;;;2.73;;
16073;SDS011;8141;52.664;5.074;2023-06-26T03:23:32;3.40;;;2.60;;
16073;SDS011;8141;52.664;5.074;2023-06-26T03:25:58;2.90;;;2.60;;
16073;SDS011;8141;52.664;5.074;2023-06-26T03:28:23;2.67;;;2.37;;
16073;SDS011;8141;52.664;5.074;2023-06-26T03:30:49;3.17;;;2.77;;
16073;SDS011;8141;52.664;5.074;2023-06-26T03:33:15;3.00;;;2.70;;
16073;SDS011;8141;52.664;5.074;2023-06-26T03:35:40;2.93;;;2.63;;
16073;SDS011;8141;52.664;5.074;2023-06-26T03:38:06;2.80;;;2.50;;
16073;SDS011;8141;52.664;5.074;2023-06-26T03:40:32;2.70;;;2.33;;
16073;SDS011;8141;52.664;5.074;2023-06-26T03:42:57;3.40;;;2.60;;
16073;SDS011;8141;52.664;5.074;2023-06-26T03:45:23;2.63;;;2.40;;
16073;SDS011;8141;52.664;5.074;2023-06-26T03:47:49;2.40;;;2.20;;
16073;SDS011;8141;52.664;5.074;2023-06-26T03:50:17;3.27;;;2.73;;
16073;SDS011;8141;52.664;5.074;2023-06-26T03:52:44;2.40;;;2.20;;
16073;SDS011;8141;52.664;5.074;2023-06-26T03:55:10;2.73;;;2.53;;
16073;SDS011;8141;52.664;5.074;2023-06-26T03:57:36;2.67;;;2.47;;
16073;SDS011;8141;52.664;5.074;2023-06-26T04:00:02;2.60;;;2.40;;
16073;SDS011;8141;52.664;5.074;2023-06-26T04:02:37;2.88;;;2.58;;
16073;SDS011;8141;52.664;5.074;2023-06-26T04:05:03;2.80;;;2.50;;
16073;SDS011;8141;52.664;5.074;2023-06-26T04:07:30;2.93;;;2.20;;
16073;SDS011;8141;52.664;5.074;2023-06-26T04:09:56;2.47;;;2.27;;
16073;SDS011;8141;52.664;5.074;2023-06-26T04:12:22;2.73;;;2.30;;
16073;SDS011;8141;52.664;5.074;2023-06-26T04:14:48;3.03;;;2.50;;
16073;SDS011;8141;52.664;5.074;2023-06-26T04:17:14;2.10;;;2.00;;
16073;SDS011;8141;52.664;5.074;2023-06-26T04:19:40;2.30;;;2.10;;
16073;SDS011;8141;52.664;5.074;2023-06-26T04:22:05;2.60;;;2.40;;
16073;SDS011;8141;52.664;5.074;2023-06-26T04:24:31;2.50;;;2.30;;
16073;SDS011;8141;52.664;5.074;2023-06-26T04:26:57;2.43;;;2.20;;
16073;SDS011;8141;52.664;5.074;2023-06-26T04:29:23;2.30;;;2.10;;
16073;SDS011;8141;52.664;5.074;2023-06-26T04:31:52;2.33;;;2.13;;
16073;SDS011;8141;52.664;5.074;2023-06-26T04:34:24;2.80;;;2.30;;
16073;SDS011;8141;52.664;5.074;2023-06-26T04:36:50;5.07;;;2.30;;
16073;SDS011;8141;52.664;5.074;2023-06-26T04:39:16;2.10;;;1.90;;
16073;SDS011;8141;52.664;5.074;2023-06-26T04:41:42;2.40;;;2.20;;
16073;SDS011;8141;52.664;5.074;2023-06-26T04:44:09;2.97;;;2.40;;
16073;SDS011;8141;52.664;5.074;2023-06-26T04:46:36;2.43;;;2.23;;
16073;SDS011;8141;52.664;5.074;2023-06-26T04:49:02;11.47;;;2.50;;
16073;SDS011;8141;52.664;5.074;2023-06-26T04:51:28;6.20;;;2.13;;
16073;SDS011;8141;52.664;5.074;2023-06-26T04:53:54;6.53;;;2.73;;
16073;SDS011;8141;52.664;5.074;2023-06-26T04:56:20;17.50;;;3.97;;
16073;SDS011;8141;52.664;5.074;2023-06-26T04:58:45;14.23;;;3.10;;
16073;SDS011;8141;52.664;5.074;2023-06-26T05:01:11;18.00;;;4.37;;
16073;SDS011;8141;52.664;5.074;2023-06-26T05:03:38;11.97;;;3.73;;
16073;SDS011;8141;52.664;5.074;2023-06-26T05:06:04;8.10;;;3.07;;
16073;SDS011;8141;52.664;5.074;2023-06-26T05:08:30;6.87;;;3.57;;
16073;SDS011;8141;52.664;5.074;2023-06-26T05:10:56;8.97;;;3.30;;
16073;SDS011;8141;52.664;5.074;2023-06-26T05:13:25;11.37;;;3.37;;
16073;SDS011;8141;52.664;5.074;2023-06-26T05:15:51;5.73;;;3.30;;
16073;SDS011;8141;52.664;5.074;2023-06-26T05:18:18;8.77;;;3.63;;
16073;SDS011;8141;52.664;5.074;2023-06-26T05:20:44;5.93;;;3.00;;
16073;SDS011;8141;52.664;5.074;2023-06-26T05:23:11;6.43;;;3.00;;
16073;SDS011;8141;52.664;5.074;2023-06-26T05:25:37;6.40;;;3.13;;
16073;SDS011;8141;52.664;5.074;2023-06-26T05:28:04;9.27;;;3.47;;
16073;SDS011;8141;52.664;5.074;2023-06-26T05:30:31;9.17;;;2.97;;
16073;SDS011;8141;52.664;5.074;2023-06-26T05:32:59;4.80;;;3.03;;
16073;SDS011;8141;52.664;5.074;2023-06-26T05:35:26;6.80;;;2.90;;
16073;SDS011;8141;52.664;5.074;2023-06-26T05:37:58;6.30;;;3.13;;
16073;SDS011;8141;52.664;5.074;2023-06-26T05:40:24;4.03;;;2.73;;
16073;SDS011;8141;52.664;5.074;2023-06-26T05:42:51;5.23;;;2.83;;
16073;SDS011;8141;52.664;5.074;2023-06-26T05:45:17;4.67;;;2.87;;
16073;SDS011;8141;52.664;5.074;2023-06-26T05:47:42;4.63;;;2.77;;
16073;SDS011;8141;52.664;5.074;2023-06-26T05:50:09;3.93;;;2.47;;
16073;SDS011;8141;52.664;5.074;2023-06-26T05:52:35;5.60;;;2.70;;
16073;SDS011;8141;52.664;5.074;2023-06-26T05:55:03;5.43;;;2.60;;
16073;SDS011;8141;52.664;5.074;2023-06-26T05:57:30;5.13;;;2.77;;
16073;SDS011;8141;52.664;5.074;2023-06-26T05:59:57;5.33;;;2.97;;
16073;SDS011;8141;52.664;5.074;2023-06-26T06:02:22;4.50;;;2.67;;
16073;SDS011;8141;52.664;5.074;2023-06-26T06:04:48;5.17;;;2.83;;
16073;SDS011;8141;52.664;5.074;2023-06-26T06:07:14;6.23;;;3.10;;
16073;SDS011;8141;52.664;5.074;2023-06-26T06:09:40;5.10;;;2.67;;
16073;SDS011;8141;52.664;5.074;2023-06-26T06:12:06;4.27;;;2.40;;
16073;SDS011;8141;52.664;5.074;2023-06-26T06:14:33;5.53;;;2.50;;
16073;SDS011;8141;52.664;5.074;2023-06-26T06:16:59;4.37;;;2.43;;
16073;SDS011;8141;52.664;5.074;2023-06-26T06:19:26;3.67;;;2.60;;
16073;SDS011;8141;52.664;5.074;2023-06-26T06:21:52;6.83;;;2.30;;
16073;SDS011;8141;52.664;5.074;2023-06-26T06:24:17;4.43;;;2.37;;
16073;SDS011;8141;52.664;5.074;2023-06-26T06:26:43;5.57;;;2.17;;
16073;SDS011;8141;52.664;5.074;2023-06-26T06:29:09;4.87;;;2.50;;
16073;SDS011;8141;52.664;5.074;2023-06-26T06:31:35;4.53;;;2.10;;
16073;SDS011;8141;52.664;5.074;2023-06-26T06:34:01;3.63;;;2.27;;
16073;SDS011;8141;52.664;5.074;2023-06-26T06:36:27;3.53;;;2.13;;
16073;SDS011;8141;52.664;5.074;2023-06-26T06:38:53;4.97;;;2.13;;
16073;SDS011;8141;52.664;5.074;2023-06-26T06:41:19;6.00;;;2.67;;
16073;SDS011;8141;52.664;5.074;2023-06-26T06:43:45;4.33;;;2.07;;
16073;SDS011;8141;52.664;5.074;2023-06-26T06:46:11;3.20;;;1.90;;
16073;SDS011;8141;52.664;5.074;2023-06-26T06:48:37;4.60;;;2.43;;
16073;SDS011;8141;52.664;5.074;2023-06-26T06:51:04;3.07;;;1.93;;
16073;SDS011;8141;52.664;5.074;2023-06-26T06:53:30;3.57;;;2.30;;
16073;SDS011;8141;52.664;5.074;2023-06-26T06:55:56;2.30;;;1.90;;
16073;SDS011;8141;52.664;5.074;2023-06-26T06:58:22;3.47;;;2.10;;
16073;SDS011;8141;52.664;5.074;2023-06-26T07:00:48;3.73;;;2.03;;
16073;SDS011;8141;52.664;5.074;2023-06-26T07:03:14;4.30;;;2.30;;
16073;SDS011;8141;52.664;5.074;2023-06-26T07:05:43;3.53;;;2.00;;
16073;SDS011;8141;52.664;5.074;2023-06-26T07:08:08;3.07;;;2.20;;
16073;SDS011;8141;52.664;5.074;2023-06-26T07:10:34;3.83;;;1.80;;
16073;SDS011;8141;52.664;5.074;2023-06-26T07:13:00;4.27;;;2.30;;
16073;SDS011;8141;52.664;5.074;2023-06-26T07:15:27;2.10;;;1.70;;
16073;SDS011;8141;52.664;5.074;2023-06-26T07:17:52;2.53;;;1.80;;
16073;SDS011;8141;52.664;5.074;2023-06-26T07:20:18;8.13;;;2.17;;
16073;SDS011;8141;52.664;5.074;2023-06-26T07:22:44;6.97;;;2.47;;
16073;SDS011;8141;52.664;5.074;2023-06-26T07:25:10;15.43;;;2.73;;
16073;SDS011;8141;52.664;5.074;2023-06-26T07:27:37;10.33;;;2.63;;
16073;SDS011;8141;52.664;5.074;2023-06-26T07:30:03;10.27;;;2.67;;
16073;SDS011;8141;52.664;5.074;2023-06-26T07:32:29;8.70;;;2.77;;
16073;SDS011;8141;52.664;5.074;2023-06-26T07:34:55;7.13;;;2.77;;
16073;SDS011;8141;52.664;5.074;2023-06-26T07:37:21;7.37;;;2.70;;
16073;SDS011;8141;52.664;5.074;2023-06-26T07:39:47;9.40;;;2.80;;
16073;SDS011;8141;52.664;5.074;2023-06-26T07:42:14;9.37;;;3.07;;
16073;SDS011;8141;52.664;5.074;2023-06-26T07:44:41;9.80;;;3.13;;
16073;SDS011;8141;52.664;5.074;2023-06-26T07:47:08;7.47;;;2.67;;
16073;SDS011;8141;52.664;5.074;2023-06-26T07:49:34;9.20;;;2.60;;
16073;SDS011;8141;52.664;5.074;2023-06-26T07:52:00;8.57;;;2.80;;
16073;SDS011;8141;52.664;5.074;2023-06-26T07:54:26;7.63;;;2.50;;
16073;SDS011;8141;52.664;5.074;2023-06-26T07:56:53;6.37;;;2.40;;
16073;SDS011;8141;52.664;5.074;2023-06-26T07:59:25;7.87;;;2.30;;
16073;SDS011;8141;52.664;5.074;2023-06-26T08:01:52;9.17;;;2.57;;
16073;SDS011;8141;52.664;5.074;2023-06-26T08:04:20;7.90;;;2.77;;
16073;SDS011;8141;52.664;5.074;2023-06-26T08:06:51;7.77;;;2.30;;
16073;SDS011;8141;52.664;5.074;2023-06-26T08:09:19;6.10;;;2.60;;
16073;SDS011;8141;52.664;5.074;2023-06-26T08:11:48;5.40;;;2.43;;
16073;SDS011;8141;52.664;5.074;2023-06-26T08:14:14;7.40;;;2.40;;
16073;SDS011;8141;52.664;5.074;2023-06-26T08:16:41;8.80;;;2.67;;
16073;SDS011;8141;52.664;5.074;2023-06-26T08:19:08;6.80;;;2.47;;
16073;SDS011;8141;52.664;5.074;2023-06-26T08:21:35;7.30;;;2.87;;
16073;SDS011;8141;52.664;5.074;2023-06-26T08:24:01;6.23;;;2.70;;
16073;SDS011;8141;52.664;5.074;2023-06-26T08:26:27;8.70;;;2.37;;
16073;SDS011;8141;52.664;5.074;2023-06-26T08:28:53;6.73;;;2.63;;
16073;SDS011;8141;52.664;5.074;2023-06-26T08:31:19;7.77;;;2.60;;
16073;SDS011;8141;52.664;5.074;2023-06-26T08:33:45;8.97;;;2.97;;
16073;SDS011;8141;52.664;5.074;2023-06-26T08:36:12;7.37;;;2.10;;
16073;SDS011;8141;52.664;5.074;2023-06-26T08:38:38;7.07;;;2.53;;
16073;SDS011;8141;52.664;5.074;2023-06-26T08:41:07;6.60;;;2.33;;
16073;SDS011;8141;52.664;5.074;2023-06-26T08:43:34;7.57;;;2.00;;
16073;SDS011;8141;52.664;5.074;2023-06-26T08:46:00;9.17;;;2.43;;
16073;SDS011;8141;52.664;5.074;2023-06-26T08:48:27;7.73;;;2.30;;
16073;SDS011;8141;52.664;5.074;2023-06-26T08:50:57;9.53;;;2.90;;
16073;SDS011;8141;52.664;5.074;2023-06-26T08:53:33;6.47;;;2.07;;
16073;SDS011;8141;52.664;5.074;2023-06-26T08:56:21;7.30;;;2.30;;
16073;SDS011;8141;52.664;5.074;2023-06-26T08:58:49;8.17;;;2.50;;
16073;SDS011;8141;52.664;5.074;2023-06-26T09:01:16;9.20;;;2.60;;
16073;SDS011;8141;52.664;5.074;2023-06-26T09:03:44;11.60;;;2.87;;
16073;SDS011;8141;52.664;5.074;2023-06-26T09:06:09;7.47;;;2.63;;
16073;SDS011;8141;52.664;5.074;2023-06-26T09:08:35;6.87;;;2.00;;
16073;SDS011;8141;52.664;5.074;2023-06-26T09:11:01;9.83;;;2.20;;
16073;SDS011;8141;52.664;5.074;2023-06-26T09:13:30;6.80;;;2.40;;
16073;SDS011;8141;52.664;5.074;2023-06-26T09:15:57;5.67;;;1.83;;
16073;SDS011;8141;52.664;5.074;2023-06-26T09:18:23;3.93;;;2.00;;
16073;SDS011;8141;52.664;5.074;2023-06-26T09:20:49;4.67;;;2.00;;
16073;SDS011;8141;52.664;5.074;2023-06-26T09:23:15;6.70;;;2.30;;
16073;SDS011;8141;52.664;5.074;2023-06-26T09:25:41;11.87;;;2.63;;
16073;SDS011;8141;52.664;5.074;2023-06-26T09:28:09;6.43;;;2.30;;
16073;SDS011;8141;52.664;5.074;2023-06-26T09:30:35;7.10;;;2.00;;
16073;SDS011;8141;52.664;5.074;2023-06-26T09:33:34;7.03;;;2.20;;
16073;SDS011;8141;52.664;5.074;2023-06-26T09:35:59;9.87;;;2.03;;
16073;SDS011;8141;52.664;5.074;2023-06-26T09:38:24;6.73;;;1.80;;
16073;SDS011;8141;52.664;5.074;2023-06-26T09:40:50;6.67;;;1.80;;
16073;SDS011;8141;52.664;5.074;2023-06-26T09:43:16;5.40;;;1.63;;
16073;SDS011;8141;52.664;5.074;2023-06-26T09:45:44;8.70;;;1.80;;
16073;SDS011;8141;52.664;5.074;2023-06-26T09:48:09;7.93;;;1.60;;
16073;SDS011;8141;52.664;5.074;2023-06-26T09:50:36;5.53;;;1.57;;
16073;SDS011;8141;52.664;5.074;2023-06-26T09:53:07;6.03;;;1.63;;
16073;SDS011;8141;52.664;5.074;2023-06-26T09:55:37;6.00;;;1.47;;
16073;SDS011;8141;52.664;5.074;2023-06-26T09:58:03;4.47;;;1.57;;
16073;SDS011;8141;52.664;5.074;2023-06-26T10:00:32;6.40;;;1.60;;
16073;SDS011;8141;52.664;5.074;2023-06-26T10:02:58;3.90;;;1.43;;
16073;SDS011;8141;52.664;5.074;2023-06-26T10:05:25;6.03;;;1.70;;
16073;SDS011;8141;52.664;5.074;2023-06-26T10:07:52;6.10;;;2.00;;
16073;SDS011;8141;52.664;5.074;2023-06-26T10:10:19;6.13;;;1.80;;
16073;SDS011;8141;52.664;5.074;2023-06-26T10:12:48;5.13;;;1.53;;
16073;SDS011;8141;52.664;5.074;2023-06-26T10:15:18;5.20;;;1.80;;
16073;SDS011;8141;52.664;5.074;2023-06-26T10:17:45;7.67;;;2.93;;
16073;SDS011;8141;52.664;5.074;2023-06-26T10:20:13;6.50;;;1.77;;
16073;SDS011;8141;52.664;5.074;2023-06-26T10:22:44;7.23;;;2.47;;
16073;SDS011;8141;52.664;5.074;2023-06-26T10:25:12;5.17;;;1.80;;
16073;SDS011;8141;52.664;5.074;2023-06-26T10:27:44;7.97;;;1.90;;
16073;SDS011;8141;52.664;5.074;2023-06-26T10:30:16;6.63;;;1.80;;
16073;SDS011;8141;52.664;5.074;2023-06-26T10:32:46;7.33;;;1.97;;
16073;SDS011;8141;52.664;5.074;2023-06-26T10:35:12;8.57;;;2.00;;
16073;SDS011;8141;52.664;5.074;2023-06-26T10:37:43;7.97;;;2.03;;
16073;SDS011;8141;52.664;5.074;2023-06-26T10:40:10;9.37;;;2.43;;
16073;SDS011;8141;52.664;5.074;2023-06-26T10:42:38;7.13;;;1.73;;
16073;SDS011;8141;52.664;5.074;2023-06-26T10:47:42;6.53;;;1.50;;
16073;SDS011;8141;52.664;5.074;2023-06-26T10:50:18;5.57;;;2.10;;
16073;SDS011;8141;52.664;5.074;2023-06-26T10:53:11;7.13;;;1.60;;
16073;SDS011;8141;52.664;5.074;2023-06-26T10:58:40;5.87;;;1.90;;
16073;SDS011;8141;52.664;5.074;2023-06-26T11:03:44;7.73;;;1.87;;
16073;SDS011;8141;52.664;5.074;2023-06-26T11:06:18;4.73;;;1.70;;
16073;SDS011;8141;52.664;5.074;2023-06-26T11:08:49;6.17;;;2.13;;
16073;SDS011;8141;52.664;5.074;2023-06-26T11:14:20;8.20;;;1.70;;
16073;SDS011;8141;52.664;5.074;2023-06-26T11:16:48;8.07;;;2.03;;
16073;SDS011;8141;52.664;5.074;2023-06-26T11:19:14;5.93;;;1.43;;
16073;SDS011;8141;52.664;5.074;2023-06-26T11:21:45;7.77;;;2.03;;
16073;SDS011;8141;52.664;5.074;2023-06-26T11:24:11;3.77;;;1.30;;
16073;SDS011;8141;52.664;5.074;2023-06-26T11:26:39;8.33;;;1.97;;
16073;SDS011;8141;52.664;5.074;2023-06-26T11:29:09;6.23;;;1.93;;
16073;SDS011;8141;52.664;5.074;2023-06-26T11:31:37;8.20;;;2.30;;
16073;SDS011;8141;52.664;5.074;2023-06-26T11:34:06;9.63;;;1.57;;
16073;SDS011;8141;52.664;5.074;2023-06-26T11:36:35;4.50;;;1.50;;
16073;SDS011;8141;52.664;5.074;2023-06-26T11:39:03;5.70;;;1.63;;
16073;SDS011;8141;52.664;5.074;2023-06-26T11:41:31;9.43;;;2.17;;
16073;SDS011;8141;52.664;5.074;2023-06-26T11:44:06;9.50;;;2.03;;
16073;SDS011;8141;52.664;5.074;2023-06-26T11:46:34;3.77;;;1.70;;
16073;SDS011;8141;52.664;5.074;2023-06-26T11:49:07;6.10;;;1.60;;
16073;SDS011;8141;52.664;5.074;2023-06-26T11:51:33;5.77;;;1.80;;
16073;SDS011;8141;52.664;5.074;2023-06-26T11:54:01;8.90;;;2.03;;
16073;SDS011;8141;52.664;5.074;2023-06-26T11:56:29;6.13;;;1.43;;
16073;SDS011;8141;52.664;5.074;2023-06-26T11:58:55;5.47;;;1.67;;
16073;SDS011;8141;52.664;5.074;2023-06-26T12:01:43;9.00;;;2.30;;
16073;SDS011;8141;52.664;5.074;2023-06-26T12:04:12;9.27;;;2.07;;
16073;SDS011;8141;52.664;5.074;2023-06-26T12:06:43;4.20;;;1.37;;
16073;SDS011;8141;52.664;5.074;2023-06-26T12:09:13;5.50;;;1.57;;
16073;SDS011;8141;52.664;5.074;2023-06-26T12:11:43;9.73;;;1.80;;
16073;SDS011;8141;52.664;5.074;2023-06-26T12:14:10;7.07;;;1.67;;
16073;SDS011;8141;52.664;5.074;2023-06-26T12:16:37;5.77;;;1.87;;
16073;SDS011;8141;52.664;5.074;2023-06-26T12:19:05;6.20;;;1.70;;
16073;SDS011;8141;52.664;5.074;2023-06-26T12:24:07;12.87;;;2.17;;
16073;SDS011;8141;52.664;5.074;2023-06-26T12:26:35;5.43;;;1.80;;
16073;SDS011;8141;52.664;5.074;2023-06-26T12:29:09;6.00;;;1.70;;
16073;SDS011;8141;52.664;5.074;2023-06-26T12:31:40;4.67;;;1.50;;
16073;SDS011;8141;52.664;5.074;2023-06-26T12:34:11;5.67;;;1.30;;
16073;SDS011;8141;52.664;5.074;2023-06-26T12:36:42;7.30;;;1.50;;
16073;SDS011;8141;52.664;5.074;2023-06-26T12:39:15;4.97;;;1.20;;
16073;SDS011;8141;52.664;5.074;2023-06-26T12:41:51;7.30;;;2.07;;
16073;SDS011;8141;52.664;5.074;2023-06-26T12:46:59;7.30;;;1.50;;
16073;SDS011;8141;52.664;5.074;2023-06-26T12:49:33;3.83;;;1.20;;
16073;SDS011;8141;52.664;5.074;2023-06-26T12:52:04;7.53;;;1.83;;
16073;SDS011;8141;52.664;5.074;2023-06-26T12:54:36;4.70;;;1.33;;
16073;SDS011;8141;52.664;5.074;2023-06-26T12:57:08;3.33;;;1.63;;
16073;SDS011;8141;52.664;5.074;2023-06-26T12:59:35;3.07;;;1.20;;
16073;SDS011;8141;52.664;5.074;2023-06-26T13:02:02;5.07;;;1.40;;
16073;SDS011;8141;52.664;5.074;2023-06-26T13:04:29;4.33;;;1.27;;
16073;SDS011;8141;52.664;5.074;2023-06-26T13:06:55;3.77;;;1.30;;
16073;SDS011;8141;52.664;5.074;2023-06-26T13:09:24;3.70;;;1.20;;
16073;SDS011;8141;52.664;5.074;2023-06-26T13:11:51;4.57;;;1.30;;
16073;SDS011;8141;52.664;5.074;2023-06-26T13:14:17;6.90;;;1.60;;
16073;SDS011;8141;52.664;5.074;2023-06-26T13:16:43;5.63;;;1.47;;
16073;SDS011;8141;52.664;5.074;2023-06-26T13:19:09;4.87;;;1.20;;
16073;SDS011;8141;52.664;5.074;2023-06-26T13:21:35;5.43;;;1.20;;
16073;SDS011;8141;52.664;5.074;2023-06-26T13:24:01;5.87;;;1.33;;
16073;SDS011;8141;52.664;5.074;2023-06-26T13:26:31;6.23;;;1.30;;
16073;SDS011;8141;52.664;5.074;2023-06-26T13:28:57;5.03;;;1.20;;
16073;SDS011;8141;52.664;5.074;2023-06-26T13:31:23;3.77;;;1.27;;
16073;SDS011;8141;52.664;5.074;2023-06-26T13:33:49;4.37;;;1.00;;
16073;SDS011;8141;52.664;5.074;2023-06-26T13:36:17;2.93;;;1.03;;
16073;SDS011;8141;52.664;5.074;2023-06-26T13:38:43;2.87;;;1.30;;
16073;SDS011;8141;52.664;5.074;2023-06-26T13:41:09;3.93;;;1.30;;
16073;SDS011;8141;52.664;5.074;2023-06-26T13:43:35;4.07;;;1.60;;
16073;SDS011;8141;52.664;5.074;2023-06-26T13:46:01;4.97;;;1.60;;
16073;SDS011;8141;52.664;5.074;2023-06-26T13:48:28;4.03;;;1.37;;
16073;SDS011;8141;52.664;5.074;2023-06-26T13:50:54;4.17;;;1.43;;
16073;SDS011;8141;52.664;5.074;2023-06-26T13:53:21;5.00;;;1.17;;
16073;SDS011;8141;52.664;5.074;2023-06-26T13:55:47;2.70;;;1.10;;
16073;SDS011;8141;52.664;5.074;2023-06-26T13:58:13;2.10;;;0.93;;
16073;SDS011;8141;52.664;5.074;2023-06-26T14:00:39;4.50;;;0.93;;
16073;SDS011;8141;52.664;5.074;2023-06-26T14:03:06;2.77;;;1.17;;
16073;SDS011;8141;52.664;5.074;2023-06-26T14:05:32;3.07;;;1.20;;
16073;SDS011;8141;52.664;5.074;2023-06-26T14:07:59;3.83;;;1.03;;
16073;SDS011;8141;52.664;5.074;2023-06-26T14:10:28;5.00;;;1.20;;
16073;SDS011;8141;52.664;5.074;2023-06-26T14:12:53;12.30;;;1.53;;
16073;SDS011;8141;52.664;5.074;2023-06-26T14:15:19;4.63;;;1.60;;
16073;SDS011;8141;52.664;5.074;2023-06-26T14:17:45;4.53;;;1.50;;
16073;SDS011;8141;52.664;5.074;2023-06-26T14:20:12;5.13;;;1.20;;
16073;SDS011;8141;52.664;5.074;2023-06-26T14:22:39;5.07;;;1.10;;
16073;SDS011;8141;52.664;5.074;2023-06-26T14:25:08;4.47;;;1.30;;
16073;SDS011;8141;52.664;5.074;2023-06-26T14:27:36;3.93;;;1.47;;
16073;SDS011;8141;52.664;5.074;2023-06-26T14:30:05;6.83;;;1.27;;
16073;SDS011;8141;52.664;5.074;2023-06-26T14:32:35;2.13;;;0.97;;
16073;SDS011;8141;52.664;5.074;2023-06-26T14:35:01;3.57;;;1.07;;
16073;SDS011;8141;52.664;5.074;2023-06-26T14:37:28;2.93;;;0.90;;
16073;SDS011;8141;52.664;5.074;2023-06-26T14:39:55;5.00;;;1.10;;
16073;SDS011;8141;52.664;5.074;2023-06-26T14:42:22;3.67;;;1.30;;
16073;SDS011;8141;52.664;5.074;2023-06-26T14:44:48;6.67;;;1.27;;
16073;SDS011;8141;52.664;5.074;2023-06-26T14:47:15;3.07;;;1.23;;
16073;SDS011;8141;52.664;5.074;2023-06-26T14:49:42;3.07;;;1.00;;
16073;SDS011;8141;52.664;5.074;2023-06-26T14:52:08;4.03;;;0.80;;
16073;SDS011;8141;52.664;5.074;2023-06-26T14:54:34;3.63;;;1.40;;
16073;SDS011;8141;52.664;5.074;2023-06-26T14:57:04;3.70;;;0.70;;
16073;SDS011;8141;52.664;5.074;2023-06-26T14:59:30;2.57;;;1.20;;
16073;SDS011;8141;52.664;5.074;2023-06-26T15:01:56;3.87;;;1.03;;
16073;SDS011;8141;52.664;5.074;2023-06-26T15:04:22;3.33;;;1.17;;
16073;SDS011;8141;52.664;5.074;2023-06-26T15:06:48;1.57;;;0.80;;
16073;SDS011;8141;52.664;5.074;2023-06-26T15:09:13;2.17;;;1.03;;
16073;SDS011;8141;52.664;5.074;2023-06-26T15:11:39;1.90;;;0.70;;
16073;SDS011;8141;52.664;5.074;2023-06-26T15:14:05;1.87;;;1.00;;
16073;SDS011;8141;52.664;5.074;2023-06-26T15:16:31;4.40;;;1.30;;
16073;SDS011;8141;52.664;5.074;2023-06-26T15:18:57;2.63;;;0.80;;
16073;SDS011;8141;52.664;5.074;2023-06-26T15:21:23;3.47;;;1.43;;
16073;SDS011;8141;52.664;5.074;2023-06-26T15:23:49;3.00;;;0.93;;